Tyne Valley, Canada
Current Conditions -  °F | °C
As of 4:00 AM on Wednesday 26 Nov 2014 (Local Time) from CYYG Reporting Station
Scattered Clouds Scattered Clouds  
Wind Chill: 38°   Ceiling: Unl
Heat Index: 43°   Visibility: 15mi
Dew Point: 28°   Wind: 8mph
Humidity: 57%   Direction: 240°WSW
Pressure: 30"   Gusts: NA
Location:  46.57°N, 63.93°W
Report Text: CYYG 260800Z 24007KT 15SM FEW050 SCT250 06/M02 A3000 RMK SC1CC3 SLP161
Loading
Personal Weather Stations






























Interactive Weather Map New forecast layout! Learn more

10-Day Weather Forecast

Advertisements
Track Severe Weather on mobile